Fort Story, Virginia
Current Conditions -  °F | °C
As of 9:56 AM on Sunday 21 Dec 2014 (Local Time) from KNTU Reporting Station
Broken Clouds Broken Clouds  
Wind Chill:   Ceiling: 7000
Heat Index:   Visibility: 10mi
Dew Point: -1°   Wind: 12mph
Humidity: 65%   Direction: 20°NNE
Pressure: 30.34"   Gusts: NA
Location:  36.922°N, 76.0108°W
Report Text: KNTU 211456Z 02010KT 10SM BKN070 06/M01 A3034 RMK AO2 SLP275 T00561006 51012
Loading
Personal Weather Stations






























Interactive Weather Map New forecast layout! Learn more

10-Day Weather Forecast

Advertisements
Track Severe Weather on mobile